Ana Sayfa
METAR-TAF:

METAR-TAF

Havaalanları :

Sylacauga, Alabama, Amerika Birleşik Devletleri

Enlem: 33-10-19N, Boylam: 086-18-20W, yükseklik: 173 m

Güncel hava durumu gözlemi

Rapor saat 18:35 UTC de 29 dakika önce yapıldı.
Rüzgar kuzeydoğudan 5 kt
Sıcaklık 36°C
Nem 29%
Basınç 1015 hPa
Görüş mesafesi: 16.1 km
10000 ft yükseklikte parçalı çok bulutlu

METAR: KSCD 251835Z AUTO 05005KT 10SM BKN100 36/15 A2997 RMK AO2 T03570145

Saat: 14:04 (19:04 UTC)


TAF: eksik

4.000'den fazla havaalanı için hava durumu gözlemleri ve tahminleri (METAR ve TAF raporları).

Kullanılabilir istasyonlar harita üzerinde sarı ve kırmızı noktalarla gösterilir.

İstasyonun adını görmek için fareyi noktanın üzerinde gezdirin.

Sonrasında hava gözlem ve tahminlerini görmek için tıklayın.

Haritayı değiştirmek için: yaklaştırmak için siyah artı işaretli yeşil düğmeye ve uzaklaştırmak için de eksi işaretli düğmeye hızla tıklayın; bitişik haritalar için yeşil okları kullanın.


METAR-TAF: